Time;durP1;ratioP1;P1;durP2;ratioP2;P2;SDS_P1;SDS_P2;PMS_P1;PMS_P2;Temp;Humidity;BMP_temperature;BMP_pressure;BME280_temperature;BME280_humidity;BME280_pressure;Samples;Min_cycle;Max_cycle;Signal;HPM_P1;HPM_P2
2024/01/24 00:01:45;;;;;;;;;;;;;;;;;;;;;
2024/01/24 00:04:11;;;;;;;5.05;1.50;;;;;;;3.08;65.76;95791.59;6217734;23;20087;-89
2024/01/24 00:06:40;;;;;;;3.83;1.52;;;;;;;3.25;64.22;95794.75;6192744;23;20049;-89
2024/01/24 00:09:09;;;;;;;5.28;1.40;;;;;;;2.96;68.78;95786.88;6193915;23;20035;-90
2024/01/24 00:11:36;;;;;;;11.45;1.70;;;;;;;2.85;69.57;95784.75;6217451;23;20402;-89
2024/01/24 00:14:01;;;;;;;3.65;1.67;;;;;;;2.76;69.73;95770.34;6192868;23;20413;-89
2024/01/24 00:16:27;;;;;;;4.38;1.70;;;;;;;2.73;69.12;95774.09;6217667;23;20020;-90
2024/01/24 00:18:53;;;;;;;4.00;1.77;;;;;;;2.69;71.24;95772.88;6192600;23;20058;-89
2024/01/24 00:21:20;;;;;;;7.78;2.22;;;;;;;2.59;70.41;95767.16;6192711;23;20083;-89
2024/01/24 00:23:46;;;;;;;4.43;1.92;;;;;;;2.62;71.00;95774.56;6218183;23;19996;-90
2024/01/24 00:26:12;;;;;;;5.97;2.13;;;;;;;2.44;71.59;95774.94;6192973;23;20027;-90
2024/01/24 00:28:37;;;;;;;3.80;2.10;;;;;;;2.33;73.25;95784.78;6192757;23;20009;-89
2024/01/24 00:31:06;;;;;;;5.50;2.13;;;;;;;2.33;72.42;95774.44;6217512;23;20067;-89
2024/01/24 00:33:32;;;;;;;4.85;2.00;;;;;;;2.37;73.50;95782.66;6193504;23;20095;-89
2024/01/24 00:36:00;;;;;;;7.25;2.45;;;;;;;2.38;72.49;95787.63;6192641;23;20001;-89
2024/01/24 00:38:35;;;;;;;;;;;;;;;;;;;;;
2024/01/24 00:41:03;;;;;;;5.55;1.90;;;;;;;2.51;70.84;95793.94;6217273;23;20083;-89
2024/01/24 00:43:34;;;;;;;3.78;1.92;;;;;;;2.56;69.90;95789.03;6217345;23;20005;-89
2024/01/24 00:45:59;;;;;;;3.53;1.92;;;;;;;2.89;68.52;95778.25;6192952;23;20004;-89
2024/01/24 00:48:25;;;;;;;2.97;1.45;;;;;;;3.02;64.86;95779.38;6192669;23;20082;-89
2024/01/24 00:50:50;;;;;;;4.03;1.90;;;;;;;3.04;65.34;95780.00;6192097;23;20062;-89
2024/01/24 00:53:27;;;;;;;4.50;1.92;;;;;;;2.81;66.99;95780.94;6217395;23;20015;-89
2024/01/24 00:55:55;;;;;;;4.85;1.95;;;;;;;2.88;67.62;95768.06;6216939;23;20464;-89
2024/01/24 00:58:20;;;;;;;3.08;1.60;;;;;;;2.70;67.76;95764.13;6217244;23;19993;-89
2024/01/24 01:00:46;;;;;;;4.47;2.05;;;;;;;2.84;67.00;95759.88;6217059;23;20417;-89
2024/01/24 01:03:12;;;;;;;3.65;1.50;;;;;;;2.74;65.09;95756.78;6192376;23;20000;-89
2024/01/24 01:05:40;;;;;;;3.10;1.65;;;;;;;2.91;64.15;95757.34;6217034;23;20008;-88
2024/01/24 01:08:06;;;;;;;2.90;1.23;;;;;;;2.99;62.54;95756.44;6216786;23;20008;-89
2024/01/24 01:10:31;;;;;;;4.13;1.80;;;;;;;2.95;62.92;95756.81;6192095;23;20043;-89
2024/01/24 01:12:59;;;;;;;5.53;2.22;;;;;;;2.92;64.01;95749.41;6216991;23;20003;-88
2024/01/24 01:15:25;;;;;;;4.50;1.55;;;;;;;2.74;63.07;95757.59;6191836;23;20386;-88
2024/01/24 01:17:51;;;;;;;2.47;1.25;;;;;;;2.89;61.45;95765.31;6216911;23;20016;-88
2024/01/24 01:20:19;;;;;;;4.32;1.30;;;;;;;3.03;57.43;95758.47;6191657;23;20005;-89
2024/01/24 01:22:47;;;;;;;1.60;1.00;;;;;;;3.01;57.21;95757.03;6192902;23;19997;-88
2024/01/24 01:25:13;;;;;;;2.67;1.40;;;;;;;2.77;58.65;95752.03;6192191;23;20425;-88
2024/01/24 01:27:39;;;;;;;8.70;1.42;;;;;;;2.78;60.71;95755.44;6191654;23;20005;-88
2024/01/24 01:30:06;;;;;;;3.65;1.40;;;;;;;2.83;61.10;95745.31;6217272;23;20003;-88
2024/01/24 01:32:31;;;;;;;3.60;1.63;;;;;;;3.05;60.84;95740.94;6216659;23;20031;-88
2024/01/24 01:34:57;;;;;;;5.53;1.85;;;;;;;3.06;61.23;95739.19;6216800;23;20000;-86
2024/01/24 01:37:23;;;;;;;3.42;1.80;;;;;;;3.06;61.04;95736.59;6216809;23;20456;-88
2024/01/24 01:39:52;;;;;;;3.53;1.50;;;;;;;2.86;61.23;95734.59;6191997;23;20004;-88
2024/01/24 01:42:17;;;;;;;7.47;1.85;;;;;;;2.87;59.86;95741.41;6216590;23;20007;-89
2024/01/24 01:44:48;;;;;;;4.97;1.50;;;;;;;2.76;61.45;95747.84;6191907;23;19996;-88
2024/01/24 01:47:14;;;;;;;4.10;1.67;;;;;;;3.15;59.79;95735.44;6192312;23;20005;-88
2024/01/24 01:49:42;;;;;;;3.20;1.05;;;;;;;3.04;57.38;95738.56;6191800;23;19996;-89
2024/01/24 01:52:08;;;;;;;2.83;1.27;;;;;;;3.14;56.74;95739.03;6192416;23;20000;-89
2024/01/24 01:54:34;;;;;;;4.18;1.38;;;;;;;3.05;57.80;95740.16;6216215;23;19997;-88
2024/01/24 01:57:01;;;;;;;3.33;1.70;;;;;;;3.05;57.71;95738.38;6191856;23;20000;-89
2024/01/24 01:59:30;;;;;;;2.35;1.20;;;;;;;2.92;58.27;95743.41;6192349;23;20000;-89
2024/01/24 02:02:04;;;;;;;5.28;1.55;;;;;;;2.98;58.36;95740.09;6191995;23;20005;-88
2024/01/24 02:04:30;;;;;;;2.13;1.10;;;;;;;3.04;58.88;95733.38;6193469;23;19997;-89
2024/01/24 02:06:55;;;;;;;3.78;1.42;;;;;;;3.19;58.72;95734.13;6191632;23;20023;-89
2024/01/24 02:09:24;;;;;;;2.28;0.90;;;;;;;3.06;57.87;95731.41;6192109;23;20004;-89
2024/01/24 02:11:50;;;;;;;4.55;1.10;;;;;;;3.19;56.75;95717.75;6216434;23;20003;-89
2024/01/24 02:14:17;;;;;;;1.92;1.05;;;;;;;3.09;56.14;95724.06;6191669;23;20420;-89
2024/01/24 02:16:43;;;;;;;1.65;0.82;;;;;;;3.31;53.38;95729.22;6192514;23;19992;-88
2024/01/24 02:19:41;;;;;;;1.55;0.80;;;;;;;3.41;52.69;95722.91;6191618;23;20004;-89
2024/01/24 02:22:07;;;;;;;2.00;0.50;;;;;;;3.34;52.41;95717.69;6216582;23;20334;-89
2024/01/24 02:24:32;;;;;;;0.85;0.60;;;;;;;3.41;51.70;95713.34;6191297;23;20009;-89
2024/01/24 02:26:58;;;;;;;1.58;0.75;;;;;;;3.90;48.87;95711.66;6191923;23;20492;-89
2024/01/24 02:29:23;;;;;;;1.27;0.80;;;;;;;3.70;49.45;95714.13;6191584;23;20004;-89
2024/01/24 02:31:56;;;;;;;1.58;0.60;;;;;;;3.52;52.54;95719.81;6191077;23;20091;-89
2024/01/24 02:34:24;;;;;;;4.30;1.20;;;;;;;3.39;54.27;95725.69;6193366;23;20000;-89
2024/01/24 02:36:49;;;;;;;1.95;0.70;;;;;;;3.18;55.39;95716.16;6191769;23;20003;-89
2024/01/24 02:39:17;;;;;;;2.50;1.27;;;;;;;3.00;55.11;95709.66;6191557;23;20004;-89
2024/01/24 02:41:43;;;;;;;2.67;1.30;;;;;;;2.74;57.19;95707.63;6191890;23;20382;-89
2024/01/24 02:44:09;;;;;;;3.25;1.00;;;;;;;2.80;54.58;95697.34;6191344;23;20059;-89
2024/01/24 02:46:35;;;;;;;5.05;1.20;;;;;;;3.04;54.67;95697.91;6191703;23;19997;-89
2024/01/24 02:49:00;;;;;;;2.95;1.00;;;;;;;3.13;52.61;95690.81;6191324;23;20051;-89
2024/01/24 02:51:26;;;;;;;0.90;0.73;;;;;;;3.07;51.77;95682.00;6191255;23;20075;-89
2024/01/24 02:53:52;;;;;;;1.50;0.80;;;;;;;2.97;51.53;95697.06;6191736;23;20004;-89
2024/01/24 02:56:18;;;;;;;3.55;0.95;;;;;;;3.16;50.87;95676.69;6191308;23;19993;-89
2024/01/24 02:58:44;;;;;;;2.47;0.90;;;;;;;2.93;53.26;95681.09;6191879;23;19997;-89
2024/01/24 03:01:14;;;;;;;1.85;0.65;;;;;;;2.81;52.90;95682.59;6216300;23;20024;-89
2024/01/24 03:03:40;;;;;;;1.48;0.60;;;;;;;2.93;52.18;95681.09;6191685;23;20457;-89
2024/01/24 03:06:05;;;;;;;1.70;0.80;;;;;;;3.29;49.82;95688.94;6191269;23;20001;-88
2024/01/24 03:08:53;;;;;;;1.65;1.00;;;;;;;3.36;50.23;95677.63;6190690;23;20009;-88
2024/01/24 03:11:21;;;;;;;2.72;0.80;;;;;;;3.28;50.55;95664.03;6191428;23;20023;-88
2024/01/24 03:13:46;;;;;;;2.13;0.80;;;;;;;3.38;49.16;95673.09;6191485;23;20000;-88
2024/01/24 03:16:12;;;;;;;2.97;0.90;;;;;;;3.22;49.18;95671.56;6191122;23;20016;-88
2024/01/24 03:18:38;;;;;;;2.85;0.80;;;;;;;3.19;49.88;95671.94;6190970;23;20000;-88
2024/01/24 03:21:09;;;;;;;1.55;0.90;;;;;;;3.48;48.48;95664.97;6190539;23;20338;-88
2024/01/24 03:23:37;;;;;;;2.22;1.00;;;;;;;3.37;48.84;95660.31;6190860;23;20453;-88
2024/01/24 03:26:03;;;;;;;3.67;0.95;;;;;;;3.07;50.72;95661.28;6191633;23;20000;-88
2024/01/24 03:28:29;;;;;;;1.55;0.77;;;;;;;2.95;50.27;95658.41;6190962;23;20013;-87
2024/01/24 03:30:54;;;;;;;1.67;0.80;;;;;;;2.92;50.31;95660.56;6190631;23;20004;-88
2024/01/24 03:33:21;;;;;;;1.13;0.60;;;;;;;3.37;48.28;95652.53;6191327;23;20090;-88
2024/01/24 03:35:47;;;;;;;1.95;0.80;;;;;;;3.48;47.65;95658.97;6216209;23;19996;-88
2024/01/24 03:38:12;;;;;;;4.60;1.00;;;;;;;3.29;48.32;95648.31;6215790;23;20076;-88
2024/01/24 03:40:38;;;;;;;1.50;0.80;;;;;;;3.23;48.36;95647.28;6215394;23;20011;-88
2024/01/24 03:43:03;;;;;;;1.90;0.80;;;;;;;3.48;48.16;95646.03;6191057;23;20000;-88
2024/01/24 03:45:29;;;;;;;2.80;0.80;;;;;;;3.49;48.23;95638.06;6191357;23;20012;-88
2024/01/24 03:47:54;;;;;;;1.23;0.60;;;;;;;3.48;48.32;95633.06;6190828;23;20007;-88
2024/01/24 03:50:20;;;;;;;1.80;0.75;;;;;;;3.39;48.36;95627.25;6215769;23;20011;-88
2024/01/24 03:52:45;;;;;;;2.20;0.70;;;;;;;3.22;49.06;95627.53;6190956;23;20001;-88
2024/01/24 03:55:10;;;;;;;2.03;1.00;;;;;;;3.23;49.38;95623.97;6215721;23;20457;-88
2024/01/24 03:57:36;;;;;;;1.50;0.77;;;;;;;3.20;48.99;95628.72;6215783;23;19993;-88
2024/01/24 04:00:01;;;;;;;1.73;0.75;;;;;;;3.27;48.86;95637.34;6215768;23;19996;-88
2024/01/24 04:02:27;;;;;;;3.97;1.00;;;;;;;3.03;49.58;95635.97;6215535;23;20276;-88
2024/01/24 04:04:52;;;;;;;4.82;0.90;;;;;;;3.04;50.54;95643.53;6215720;23;20007;-88
2024/01/24 04:07:18;;;;;;;2.67;0.70;;;;;;;3.43;48.55;95628.44;6215287;23;20071;-88
2024/01/24 04:09:43;;;;;;;1.08;0.70;;;;;;;3.23;50.09;95630.94;6190918;23;20001;-88
2024/01/24 04:12:09;;;;;;;2.65;0.85;;;;;;;3.51;48.92;95646.44;6215692;23;19996;-88
2024/01/24 04:14:34;;;;;;;1.88;0.80;;;;;;;3.76;49.04;95640.81;6215773;23;20000;-88
2024/01/24 04:17:00;;;;;;;2.78;0.70;;;;;;;3.77;49.66;95644.19;6215681;23;20024;-88
2024/01/24 04:19:25;;;;;;;3.42;1.00;;;;;;;3.73;49.85;95642.97;6190891;23;20326;-88
2024/01/24 04:21:51;;;;;;;3.90;0.88;;;;;;;3.34;49.92;95656.31;6190760;23;20001;-88
2024/01/24 04:24:16;;;;;;;3.67;0.85;;;;;;;3.16;53.43;95651.63;6215698;23;20008;-88
2024/01/24 04:26:42;;;;;;;1.90;0.90;;;;;;;3.11;51.36;95646.19;6217004;23;19996;-88
2024/01/24 04:29:08;;;;;;;2.90;0.88;;;;;;;3.28;50.54;95646.72;6217517;23;20007;-88
2024/01/24 04:31:35;;;;;;;1.05;0.70;;;;;;;3.65;48.87;95643.94;6192596;23;20067;-88
2024/01/24 04:34:01;;;;;;;1.65;0.50;;;;;;;3.84;47.98;95645.03;6193023;23;20004;-88
2024/01/24 04:36:26;;;;;;;3.30;0.60;;;;;;;3.82;48.62;95641.81;6192993;23;20452;-88
2024/01/24 04:38:52;;;;;;;1.75;0.60;;;;;;;3.88;48.22;95630.66;6192514;23;19997;-88
2024/01/24 04:41:17;;;;;;;1.10;0.50;;;;;;;3.84;48.56;95629.47;6216937;23;20042;-88
2024/01/24 04:43:43;;;;;;;0.98;0.50;;;;;;;3.89;48.04;95627.09;6217351;23;20001;-88
2024/01/24 04:46:15;;;;;;;0.95;0.52;;;;;;;3.66;48.35;95617.00;6217524;23;20410;-88
2024/01/24 04:48:44;;;;;;;2.90;0.60;;;;;;;3.74;47.98;95632.41;6217539;23;20005;-88
2024/01/24 04:51:11;;;;;;;2.28;0.82;;;;;;;3.80;48.46;95628.22;6192305;23;20059;-88
2024/01/24 04:53:36;;;;;;;7.50;1.30;;;;;;;3.64;49.88;95632.75;6192189;23;20011;-87
2024/01/24 04:56:07;;;;;;;3.47;1.00;;;;;;;3.60;49.68;95633.34;6217089;23;20406;-87
2024/01/24 04:58:33;;;;;;;1.00;0.68;;;;;;;3.51;49.93;95648.22;6216826;23;20357;-86
2024/01/24 05:00:58;;;;;;;1.92;0.82;;;;;;;3.24;50.55;95643.69;6216416;23;20068;-87
2024/01/24 05:03:23;;;;;;;3.30;1.23;;;;;;;3.29;50.81;95634.53;6218303;23;20004;-88
2024/01/24 05:05:49;;;;;;;4.03;0.75;;;;;;;3.28;50.65;95630.34;6217428;23;19996;-88
2024/01/24 05:08:14;;;;;;;1.00;0.73;;;;;;;3.12;50.53;95621.88;6191859;23;20331;-88
2024/01/24 05:10:40;;;;;;;1.35;0.80;;;;;;;3.32;50.49;95629.00;6192066;23;20070;-88
2024/01/24 05:13:05;;;;;;;1.73;0.80;;;;;;;3.09;51.74;95611.91;6192128;23;20414;-88
2024/01/24 05:15:31;;;;;;;2.00;0.80;;;;;;;3.32;49.89;95621.22;6192593;23;20001;-88
2024/01/24 05:17:56;;;;;;;2.25;0.90;;;;;;;3.35;49.37;95613.84;6192189;23;20011;-88
2024/01/24 05:20:21;;;;;;;1.65;0.52;;;;;;;3.39;49.64;95612.50;6191627;23;19996;-87
2024/01/24 05:22:47;;;;;;;1.52;0.70;;;;;;;3.41;48.82;95611.50;6216944;23;20298;-87
2024/01/24 05:25:12;;;;;;;1.48;0.70;;;;;;;3.52;48.75;95614.34;6217044;23;20411;-87
2024/01/24 05:27:38;;;;;;;3.08;0.77;;;;;;;3.53;48.41;95618.53;6191908;23;20078;-89
2024/01/24 05:30:04;;;;;;;2.17;0.80;;;;;;;3.21;49.23;95613.00;6192051;23;20007;-89
2024/01/24 05:32:30;;;;;;;1.65;0.80;;;;;;;3.31;49.54;95610.06;6192474;23;20108;-89
2024/01/24 05:34:55;;;;;;;1.73;0.60;;;;;;;3.14;49.58;95619.91;6191649;23;20000;-88
2024/01/24 05:37:21;;;;;;;3.53;1.08;;;;;;;3.26;49.77;95612.44;6191564;23;20345;-89
2024/01/24 05:39:48;;;;;;;0.90;0.70;;;;;;;3.21;49.79;95604.41;6216852;23;19996;-88
2024/01/24 05:42:14;;;;;;;0.82;0.50;;;;;;;3.45;49.36;95602.34;6191961;23;20287;-88
2024/01/24 05:44:39;;;;;;;3.53;1.00;;;;;;;3.45;48.93;95599.78;6191645;23;20000;-89
2024/01/24 05:47:05;;;;;;;4.82;0.80;;;;;;;3.48;48.58;95601.97;6191761;23;20004;-89
2024/01/24 05:49:35;;;;;;;2.15;0.85;;;;;;;3.52;48.51;95585.06;6191663;23;20008;-89
2024/01/24 05:52:00;;;;;;;4.28;0.70;;;;;;;3.61;48.22;95581.31;6191571;23;20420;-87
2024/01/24 05:54:26;;;;;;;2.85;0.60;;;;;;;3.35;48.78;95587.94;6191661;23;20078;-86
2024/01/24 05:56:51;;;;;;;2.80;0.50;;;;;;;3.40;48.90;95589.97;6191418;23;20064;-87
2024/01/24 05:59:18;;;;;;;5.80;0.80;;;;;;;3.39;48.78;95602.16;6192122;23;20046;-87
2024/01/24 06:01:43;;;;;;;1.40;0.60;;;;;;;3.43;49.09;95593.97;6190156;23;20000;-87
2024/01/24 06:04:08;;;;;;;1.33;0.70;;;;;;;3.39;49.27;95596.16;6190521;23;19996;-87
2024/01/24 06:06:34;;;;;;;3.08;0.63;;;;;;;3.31;49.63;95602.28;6191711;23;20057;-87
2024/01/24 06:08:59;;;;;;;0.80;0.70;;;;;;;3.28;50.53;95601.84;6191866;23;19996;-89
2024/01/24 06:11:25;;;;;;;1.35;0.80;;;;;;;3.14;51.03;95594.00;6216707;23;20001;-90
2024/01/24 06:13:50;;;;;;;1.67;0.70;;;;;;;3.05;51.57;95597.75;6191830;23;19997;-90
2024/01/24 06:16:16;;;;;;;1.63;0.60;;;;;;;2.95;51.74;95592.91;6191561;23;20433;-89
2024/01/24 06:18:42;;;;;;;1.05;0.60;;;;;;;2.85;52.54;95598.38;6217020;23;19992;-89
2024/01/24 06:21:09;;;;;;;2.63;0.90;;;;;;;2.99;52.56;95601.06;6191579;23;20000;-89
2024/01/24 06:23:34;;;;;;;2.33;0.82;;;;;;;3.17;51.02;95600.59;6192481;23;20000;-90
2024/01/24 06:25:59;;;;;;;1.70;0.90;;;;;;;2.89;51.98;95598.81;6216436;23;20028;-90
2024/01/24 06:28:25;;;;;;;1.15;0.80;;;;;;;2.91;52.63;95595.06;6192070;23;20008;-90
2024/01/24 06:30:52;;;;;;;1.20;0.60;;;;;;;2.97;51.33;95596.88;6191563;23;20337;-90
2024/01/24 06:33:18;;;;;;;2.42;0.60;;;;;;;3.01;50.40;95599.09;6191854;23;20001;-90
2024/01/24 06:35:43;;;;;;;7.43;1.00;;;;;;;3.50;49.29;95602.56;6216277;23;20000;-90
2024/01/24 06:38:09;;;;;;;5.35;1.20;;;;;;;3.76;49.00;95601.91;6216374;23;19992;-91
2024/01/24 06:40:34;;;;;;;3.17;1.08;;;;;;;3.65;49.05;95599.88;6191439;23;20011;-90
2024/01/24 06:43:00;;;;;;;3.40;1.33;;;;;;;3.51;50.06;95602.41;6191279;23;20309;-89
2024/01/24 06:45:25;;;;;;;5.28;1.10;;;;;;;3.25;51.09;95606.44;6191510;23;20043;-90
2024/01/24 06:47:50;;;;;;;2.83;0.93;;;;;;;3.32;51.29;95603.09;6191263;23;20008;-89
2024/01/24 06:50:17;;;;;;;1.55;0.70;;;;;;;3.25;51.28;95585.72;6191253;23;20005;-90
2024/01/24 06:52:43;;;;;;;1.15;0.63;;;;;;;3.10;51.17;95596.19;6216639;23;20310;-90
2024/01/24 06:55:09;;;;;;;2.80;0.63;;;;;;;3.33;50.43;95599.50;6192218;23;20000;-90
2024/01/24 06:57:34;;;;;;;2.00;0.80;;;;;;;3.56;49.58;95598.41;6191584;23;19993;-89
2024/01/24 07:00:01;;;;;;;2.38;1.05;;;;;;;3.84;48.30;95602.72;6191312;23;20028;-90
2024/01/24 07:02:26;;;;;;;2.25;1.17;;;;;;;3.89;48.32;95598.56;6191127;23;20008;-89
2024/01/24 07:04:51;;;;;;;15.95;1.33;;;;;;;4.10;48.05;95587.25;6191731;23;20004;-89
2024/01/24 07:07:17;;;;;;;2.10;1.17;;;;;;;4.19;47.93;95595.66;6191541;23;20007;-90
2024/01/24 07:09:42;;;;;;;4.10;1.00;;;;;;;4.27;47.67;95597.25;6191231;23;20329;-90
2024/01/24 07:12:08;;;;;;;2.95;1.20;;;;;;;4.17;48.55;95599.47;6191536;23;20050;-89
2024/01/24 07:14:34;;;;;;;3.88;1.52;;;;;;;4.05;49.13;95594.84;6191599;23;20012;-90
2024/01/24 07:17:00;;;;;;;3.42;1.00;;;;;;;3.95;49.37;95604.78;6191088;23;20000;-90
2024/01/24 07:19:25;;;;;;;0.77;0.63;;;;;;;3.83;49.88;95596.75;6191378;23;20007;-90
2024/01/24 07:21:51;;;;;;;4.78;0.90;;;;;;;3.87;49.95;95600.56;6191108;23;20028;-91
2024/01/24 07:24:16;;;;;;;3.15;1.00;;;;;;;4.07;49.99;95605.81;6191171;23;20004;-90
2024/01/24 07:26:42;;;;;;;2.38;0.90;;;;;;;3.96;49.41;95612.38;6191202;23;20086;-90
2024/01/24 07:29:44;;;;;;;1.95;0.70;;;;;;;3.91;52.02;95614.72;6191053;23;20011;-90
2024/01/24 07:32:10;;;;;;;3.00;1.42;;;;;;;3.99;50.72;95605.97;6216707;23;20083;-89
2024/01/24 07:34:38;;;;;;;2.15;1.10;;;;;;;4.07;51.83;95603.22;6216762;23;20036;-90
2024/01/24 07:37:05;;;;;;;1.10;0.70;;;;;;;4.16;52.01;95609.03;6191969;23;19996;-90
2024/01/24 07:39:44;;;;;;;1.92;1.02;;;;;;;4.43;50.49;95605.69;6191136;23;20000;-91
2024/01/24 07:42:09;;;;;;;3.05;0.90;;;;;;;4.63;52.79;95616.91;6191237;23;20314;-90
2024/01/24 07:44:35;;;;;;;2.97;1.00;;;;;;;4.58;53.30;95619.28;6188944;23;20035;-90
2024/01/24 07:47:01;;;;;;;2.17;0.85;;;;;;;4.69;55.67;95625.69;6190970;23;19997;-89
2024/01/24 07:49:26;;;;;;;1.30;0.77;;;;;;;4.75;53.54;95618.91;6216143;23;20008;-90
2024/01/24 07:51:52;;;;;;;1.40;0.98;;;;;;;4.85;54.13;95619.28;6191223;23;19992;-90
2024/01/24 07:54:17;;;;;;;2.15;1.00;;;;;;;4.92;52.03;95609.72;6191393;23;20298;-90
2024/01/24 07:56:43;;;;;;;2.00;1.00;;;;;;;4.92;50.89;95617.50;6191243;23;20470;-90
2024/01/24 07:59:12;;;;;;;2.38;1.02;;;;;;;5.05;51.89;95621.09;6216177;23;20418;-89
2024/01/24 08:01:37;;;;;;;2.53;0.98;;;;;;;5.10;57.15;95610.91;6193215;23;20000;-91
2024/01/24 08:04:03;;;;;;;2.90;1.20;;;;;;;5.07;57.49;95609.50;6193402;23;20398;-91
2024/01/24 08:06:29;;;;;;;2.30;1.00;;;;;;;5.23;55.80;95604.88;6192617;23;20039;-91
2024/01/24 08:08:54;;;;;;;2.30;0.90;;;;;;;5.26;57.26;95607.09;6192874;23;20398;-90
2024/01/24 08:11:21;;;;;;;1.70;0.82;;;;;;;5.30;56.93;95610.88;6192815;23;20452;-90
2024/01/24 08:13:47;;;;;;;1.83;0.93;;;;;;;5.47;56.51;95628.63;6193381;23;20004;-91
2024/01/24 08:16:12;;;;;;;1.70;0.98;;;;;;;5.50;57.35;95616.03;6217605;23;20024;-92
2024/01/24 08:18:38;;;;;;;1.98;0.90;;;;;;;5.64;56.66;95616.00;6193297;23;20011;-91
2024/01/24 08:21:03;;;;;;;1.65;0.82;;;;;;;5.82;54.85;95617.13;6192810;23;20001;-91
2024/01/24 08:23:29;;;;;;;2.33;0.65;;;;;;;5.84;54.33;95609.91;6192925;23;20004;-91
2024/01/24 08:25:54;;;;;;;1.67;0.80;;;;;;;5.94;52.69;95611.06;6218030;23;20091;-90
2024/01/24 08:28:20;;;;;;;1.05;0.70;;;;;;;6.17;53.29;95607.19;6192809;23;20314;-90
2024/01/24 08:30:45;;;;;;;3.33;0.90;;;;;;;6.41;54.17;95604.88;6217582;23;20001;-92
2024/01/24 08:33:10;;;;;;;1.92;1.00;;;;;;;6.57;54.39;95607.97;6192938;23;20425;-90
2024/01/24 08:35:36;;;;;;;2.40;0.90;;;;;;;6.79;54.70;95611.03;6192875;23;20444;-92
2024/01/24 08:38:03;;;;;;;2.08;0.70;;;;;;;6.93;55.83;95612.53;6193288;23;19997;-91
2024/01/24 08:40:28;;;;;;;2.30;0.80;;;;;;;7.06;52.62;95610.81;6192706;23;20426;-92
2024/01/24 08:42:54;;;;;;;1.25;0.80;;;;;;;7.13;54.87;95616.75;6192863;23;20004;-91
2024/01/24 08:45:19;;;;;;;2.38;1.10;;;;;;;7.20;54.06;95625.31;6193258;23;20001;-91
2024/01/24 08:47:45;;;;;;;1.48;0.80;;;;;;;7.01;51.36;95632.31;6192680;23;20390;-91
2024/01/24 08:50:10;;;;;;;2.75;0.70;;;;;;;7.03;50.29;95630.28;6192648;23;20080;-91
2024/01/24 08:52:36;;;;;;;1.02;0.70;;;;;;;7.10;51.58;95635.44;6217521;23;20000;-93
2024/01/24 08:55:01;;;;;;;1.20;0.90;;;;;;;6.92;53.52;95628.34;6193128;23;19996;-91
2024/01/24 08:57:27;;;;;;;0.95;0.50;;;;;;;6.68;52.00;95619.53;6192770;23;20003;-91
2024/01/24 08:59:53;;;;;;;1.67;0.80;;;;;;;6.57;48.71;95608.75;6193129;23;20019;-92
2024/01/24 09:02:19;;;;;;;1.17;0.55;;;;;;;6.44;48.73;95604.44;6192550;23;20322;-91
2024/01/24 09:04:46;;;;;;;0.85;0.60;;;;;;;6.40;54.90;95610.28;6192908;23;20008;-91
2024/01/24 09:07:14;;;;;;;0.90;0.57;;;;;;;6.50;50.33;95608.03;6193059;23;20005;-92
2024/01/24 09:09:40;;;;;;;0.70;0.50;;;;;;;6.58;47.37;95599.16;6193029;23;19997;-91
2024/01/24 09:12:05;;;;;;;1.77;0.50;;;;;;;6.46;51.55;95606.84;6192450;23;20032;-92
2024/01/24 09:14:31;;;;;;;1.45;0.82;;;;;;;6.56;53.55;95607.16;6192571;23;20043;-91
2024/01/24 09:16:56;;;;;;;1.15;0.52;;;;;;;6.53;53.31;95610.19;6192692;23;20034;-91
2024/01/24 09:19:22;;;;;;;1.83;0.65;;;;;;;6.54;59.09;95624.03;6193071;23;20024;-91
2024/01/24 09:21:48;;;;;;;2.47;1.05;;;;;;;6.48;57.55;95630.88;6192693;23;20000;-91
2024/01/24 09:24:14;;;;;;;2.75;1.17;;;;;;;6.54;59.93;95624.03;6192714;23;20296;-92
2024/01/24 09:26:39;;;;;;;1.45;0.80;;;;;;;6.46;60.98;95622.47;6192206;23;20080;-92
2024/01/24 09:29:05;;;;;;;1.80;0.90;;;;;;;6.43;56.89;95612.47;6192511;23;20407;-91
2024/01/24 09:31:31;;;;;;;2.30;0.90;;;;;;;6.27;57.09;95614.56;6192799;23;20004;-90
2024/01/24 09:33:56;;;;;;;3.42;1.00;;;;;;;6.14;56.01;95612.03;6192471;23;20004;-92
2024/01/24 09:36:23;;;;;;;2.08;0.93;;;;;;;6.21;54.98;95620.59;6217273;23;20000;-91
2024/01/24 09:38:49;;;;;;;1.23;0.73;;;;;;;6.35;55.92;95616.91;6192876;23;20011;-92
2024/01/24 09:41:18;;;;;;;1.52;0.90;;;;;;;6.56;55.89;95599.34;6192523;23;20036;-92
2024/01/24 09:43:43;;;;;;;2.78;0.80;;;;;;;6.67;56.90;95602.31;6217080;23;19997;-92
2024/01/24 09:46:12;;;;;;;3.05;0.73;;;;;;;6.87;56.59;95596.94;6192097;23;20003;-91
2024/01/24 09:48:38;;;;;;;0.77;0.65;;;;;;;7.09;54.46;95594.75;6192242;23;20001;-92
2024/01/24 09:51:04;;;;;;;3.22;0.75;;;;;;;7.26;53.60;95594.19;6192215;23;20008;-92
2024/01/24 09:53:31;;;;;;;1.40;0.75;;;;;;;7.50;52.43;95595.16;6192123;23;20409;-92
2024/01/24 09:55:56;;;;;;;1.55;0.60;;;;;;;7.76;48.59;95599.28;6192119;23;20004;-92
2024/01/24 09:58:22;;;;;;;0.93;0.50;;;;;;;8.15;50.69;95596.41;6192352;23;19997;-91
2024/01/24 10:00:47;;;;;;;4.45;0.80;;;;;;;8.51;48.25;95601.78;6216728;23;20004;-91
2024/01/24 10:03:13;;;;;;;2.17;1.02;;;;;;;8.70;49.68;95589.44;6216857;23;20402;-92
2024/01/24 10:05:39;;;;;;;3.85;0.80;;;;;;;8.86;50.47;95585.34;6192178;23;20004;-91
2024/01/24 10:08:05;;;;;;;1.08;0.63;;;;;;;8.69;48.14;95587.84;6192066;23;20058;-91
2024/01/24 10:10:30;;;;;;;1.23;0.70;;;;;;;8.65;49.47;95581.47;6191946;23;20113;-91
2024/01/24 10:12:56;;;;;;;1.83;0.68;;;;;;;8.57;49.68;95584.41;6192192;23;20008;-90
2024/01/24 10:15:21;;;;;;;0.82;0.70;;;;;;;8.53;51.13;95578.84;6191859;23;20007;-91
2024/01/24 10:17:47;;;;;;;1.38;0.75;;;;;;;8.41;50.96;95572.75;6192459;23;20004;-91
2024/01/24 10:20:12;;;;;;;2.00;0.80;;;;;;;8.48;49.04;95568.25;6192369;23;19997;-90
2024/01/24 10:22:39;;;;;;;1.75;0.70;;;;;;;8.60;47.70;95563.06;6191804;23;19997;-91
2024/01/24 10:25:05;;;;;;;1.05;0.57;;;;;;;8.66;47.44;95554.31;6191687;23;20398;-91
2024/01/24 10:27:32;;;;;;;2.25;0.80;;;;;;;8.66;49.11;95551.69;6216323;23;20015;-92
2024/01/24 10:29:58;;;;;;;1.48;0.90;;;;;;;8.61;48.99;95549.78;6191687;23;20406;-91
2024/01/24 10:32:24;;;;;;;3.80;0.73;;;;;;;8.59;49.01;95533.53;6192099;23;20288;-91
2024/01/24 10:34:50;;;;;;;1.27;0.80;;;;;;;8.68;49.52;95533.19;6217070;23;20003;-92
2024/01/24 10:37:18;;;;;;;3.45;1.00;;;;;;;8.84;49.60;95536.97;6216583;23;19997;-91
2024/01/24 10:39:44;;;;;;;1.33;0.85;;;;;;;9.02;49.45;95533.44;6192281;23;19996;-91
2024/01/24 10:42:10;;;;;;;2.30;1.15;;;;;;;9.36;50.07;95517.13;6192049;23;20095;-91
2024/01/24 10:44:35;;;;;;;1.40;0.80;;;;;;;9.64;49.26;95516.41;6216424;23;20055;-90
2024/01/24 10:47:05;;;;;;;4.85;0.88;;;;;;;9.75;45.88;95507.72;6216335;23;20001;-91
2024/01/24 10:49:31;;;;;;;1.20;0.70;;;;;;;9.84;47.04;95500.28;6216160;23;19996;-90
2024/01/24 10:51:57;;;;;;;0.93;0.70;;;;;;;9.94;47.88;95502.28;6191877;23;19997;-91
2024/01/24 10:54:22;;;;;;;8.90;0.60;;;;;;;9.89;47.78;95496.94;6216729;23;20068;-91
2024/01/24 10:56:49;;;;;;;2.58;0.95;;;;;;;9.81;48.64;95489.47;6191606;23;20458;-92
2024/01/24 10:59:18;;;;;;;2.25;0.82;;;;;;;9.62;48.57;95493.06;6191397;23;20345;-91
2024/01/24 11:01:44;;;;;;;1.65;1.00;;;;;;;9.33;48.90;95471.34;6191879;23;20342;-91
2024/01/24 11:04:11;;;;;;;2.92;0.93;;;;;;;9.27;48.59;95470.44;6216409;23;20003;-91
2024/01/24 11:07:04;;;;;;;2.55;1.10;;;;;;;9.27;47.31;95469.63;6216255;23;20003;-91
2024/01/24 11:09:40;;;;;;;3.40;0.90;;;;;;;9.21;47.15;95467.94;6191587;23;20024;-90
2024/01/24 11:12:05;;;;;;;1.02;0.60;;;;;;;9.26;48.40;95462.81;6191440;23;20004;-91
2024/01/24 11:14:33;;;;;;;1.65;0.80;;;;;;;9.45;48.46;95458.22;6191624;23;20091;-91
2024/01/24 11:16:59;;;;;;;4.75;0.88;;;;;;;9.38;48.67;95454.91;6216516;23;20513;-91
2024/01/24 11:19:26;;;;;;;2.20;1.10;;;;;;;9.39;49.93;95452.09;6191359;23;20038;-91
2024/01/24 11:21:53;;;;;;;4.47;1.00;;;;;;;9.35;49.81;95448.34;6216337;23;20001;-91
2024/01/24 11:24:45;;;;;;;1.45;0.70;;;;;;;9.23;47.04;95447.59;6216243;23;20001;-91
2024/01/24 11:27:36;;;;;;;1.42;0.77;;;;;;;9.26;48.88;95444.50;6210489;23;20377;-90
2024/01/24 11:30:11;;;;;;;1.80;0.80;;;;;;;9.31;50.07;95439.38;6191320;23;20410;-91
2024/01/24 11:32:54;;;;;;;5.68;1.25;;;;;;;9.31;51.11;95440.16;6217565;23;20050;-91
2024/01/24 11:35:37;;;;;;;1.15;0.75;;;;;;;9.33;51.03;95429.50;6217491;23;20394;-91
2024/01/24 11:38:24;;;;;;;3.40;1.23;;;;;;;9.46;51.62;95429.19;6193881;23;20004;-91
2024/01/24 11:40:56;;;;;;;1.73;0.70;;;;;;;9.65;50.38;95413.31;6218361;23;20238;-90
2024/01/24 11:43:29;;;;;;;2.05;0.73;;;;;;;9.74;47.52;95418.97;6193267;23;20532;-90